Missoula International Airport Missoula US
ICAO: KMSO
IATA: MSO
Category: Medium
Scheduled Services: Yes

Elevation: 3206 ft
TransAlt. 18000 ft.

Airport Communications:
SPOKANE APP/DEP:124.9
ATIS:126.65
CTAF:118.4
GND:121.9
GREAT FALLS RDO:122.45
TWR:118.4
UNICOM:122.95

KMSO Zoom In..

Runways:

(A) RW 07 length 4612 ft width 75 ft
---- / hdg 72

(B) RW 11 length 9501 ft width 150 ft
ILS 109.30 / hdg 113

(C) RW 25 length 4612 ft width 75 ft
---- / hdg 252

(D) RW 29 length 9501 ft width 150 ft
---- / hdg 293

Location; KMSO
Day. 25 / Time. 11.53 Zulu
* Altimeter: 30.17
* Temperature: 00° c. 32°f.
* Wind from: 330° Speed 04 kn.
Dewpoint: -04° c.
Visibility: 10 Statute Miles.
Clouds: Clear (automated report).

KMSO 251153Z AUTO 33004KT 10SM CLR 00/M04 A3017 RMK AO2 SLP223 T00001039 10061 21006 56008


Wind From 330°
Speed 04 kn.

  YouTube Music Video
 
jpsmedia.com for Web Design  worldairports.se 2018   terms of use